• Join FlightAware (Why Join?)
  • Login
  • US Flag 
02:49AM EDT


 

Airport Tracker/Info


-or-


 

Live Flight TrackerFlight Track Log ✈ N510SR ✈ 26-Sep-2013 ✈ EINN / SNN - KTEB

Flight Track Log - Related Links

Times and Time Zones

All times are in EDT time to prevent confusion due to time zone crossing. See the N510SR flight status page for this flight to view local times or setup timezone preferences in your user account.

Time Position Orientation Groundspeed Altitude Reporting Facility
EDT Latitude Longitude Course Direction KTS MPH feet Rate Location/Type
03:43PM 53.4509 -17.3069 274° West  Level Estimated
03:44PM 53.4698 -17.5031 279° West  Level FlightAware Approximate
03:45PM 53.4884 -17.6994 279° West  Level FlightAware Approximate
03:46PM 53.5067 -17.8960 279° West  Level FlightAware Approximate
03:47PM 53.5247 -18.0926 279° West  Level FlightAware Approximate
03:48PM 53.5424 -18.2895 279° West  Level FlightAware Approximate
03:49PM 53.5597 -18.4865 278° West  Level FlightAware Approximate
03:50PM 53.5767 -18.6837 278° West  Level FlightAware Approximate
03:51PM 53.5934 -18.8810 278° West  Level FlightAware Approximate
03:52PM 53.6097 -19.0785 278° West  Level FlightAware Approximate
03:53PM 53.6258 -19.2761 278° West  Level FlightAware Approximate
03:54PM 53.6414 -19.4739 278° West  Level FlightAware Approximate
03:55PM 53.6568 -19.6719 278° West  Level FlightAware Approximate
03:56PM 53.6719 -19.8699 277° West  Level FlightAware Approximate
03:57PM 53.6866 -20.0681 277° West  Level FlightAware Approximate
03:58PM 53.7010 -20.2665 277° West  Level FlightAware Approximate
03:59PM 53.7150 -20.4650 277° West  Level FlightAware Approximate
03:59PM 54.0000 -20.0000 274° West 449 517 40,000  Level ETMS Enhanced Traffic Management System
04:00PM 53.7288 -20.6636 277° West  Level FlightAware Approximate
04:01PM 53.7422 -20.8623 277° West  Level FlightAware Approximate
04:02PM 53.7553 -21.0612 276° West  Level FlightAware Approximate
04:03PM 53.7680 -21.2602 276° West  Level FlightAware Approximate
04:04PM 53.7804 -21.4593 276° West  Level FlightAware Approximate
04:05PM 54.0586 -21.6990 273° West 449 517 40,000  Level FlightAware Transoceanic
04:06PM 54.0643 -21.9117 273° West 449 517 40,000  Level FlightAware Transoceanic
04:07PM 54.0695 -22.1245 272° West 449 517 40,000  Level FlightAware Transoceanic
04:08PM 54.0744 -22.3372 272° West 449 517 40,000  Level FlightAware Transoceanic
04:09PM 54.0789 -22.5501 272° West 449 517 40,000  Level FlightAware Transoceanic
04:10PM 54.0831 -22.7630 272° West 449 517 40,000  Level FlightAware Transoceanic
04:11PM 54.0868 -22.9759 272° West 449 517 40,000  Level FlightAware Transoceanic
04:12PM 54.0902 -23.1889 271° West 449 517 40,000  Level FlightAware Transoceanic
04:13PM 54.0932 -23.4019 271° West 449 517 40,000  Level FlightAware Transoceanic
04:14PM 54.0959 -23.6149 271° West 449 517 40,000  Level FlightAware Transoceanic
04:15PM 54.0981 -23.8279 271° West 449 517 40,000  Level FlightAware Transoceanic
04:16PM 54.1000 -24.0410 271° West 449 517 40,000  Level FlightAware Transoceanic
04:17PM 54.1015 -24.2541 271° West 449 517 40,000  Level FlightAware Transoceanic
04:18PM 54.1026 -24.4672 270° West 449 517 40,000  Level FlightAware Transoceanic
04:19PM 54.1034 -24.6803 270° West 449 517 40,000  Level FlightAware Transoceanic
04:20PM 54.1038 -24.8934 270° West 449 517 40,000  Level FlightAware Transoceanic
04:21PM 54.1038 -25.1066 270° West 449 517 40,000  Level FlightAware Transoceanic
04:22PM 54.1034 -25.3197 270° West 449 517 40,000  Level FlightAware Transoceanic
04:23PM 54.1026 -25.5328 270° West 449 517 40,000  Level FlightAware Transoceanic
04:24PM 54.1015 -25.7459 269° West 449 517 40,000  Level FlightAware Transoceanic
04:25PM 54.1000 -25.9590 269° West 449 517 40,000  Level FlightAware Transoceanic
04:26PM 54.0981 -26.1721 269° West 449 517 40,000  Level FlightAware Transoceanic
04:27PM 54.0959 -26.3851 269° West 449 517 40,000  Level FlightAware Transoceanic
04:28PM 54.0932 -26.5981 269° West 449 517 40,000  Level FlightAware Transoceanic
04:29PM 54.0902 -26.8111 269° West 449 517 40,000  Level FlightAware Transoceanic
04:30PM 54.0868 -27.0241 268° West 449 517 40,000  Level FlightAware Transoceanic
04:31PM 54.0831 -27.2370 268° West 449 517 40,000  Level FlightAware Transoceanic
04:32PM 54.0789 -27.4499 268° West 449 517 40,000  Level FlightAware Transoceanic
04:33PM 54.0744 -27.6628 268° West 449 517 40,000  Level FlightAware Transoceanic
04:34PM 54.0695 -27.8755 268° West 449 517 40,000  Level FlightAware Transoceanic
04:35PM 54.0643 -28.0883 267° West 449 517 40,000  Level FlightAware Transoceanic
04:36PM 54.0586 -28.3010 267° West 449 517 40,000  Level FlightAware Transoceanic
04:37PM 54.0526 -28.5136 267° West 449 517 40,000  Level FlightAware Transoceanic
04:38PM 54.0462 -28.7262 267° West 449 517 40,000  Level FlightAware Transoceanic
04:39PM 54.0394 -28.9387 267° West 449 517 40,000  Level FlightAware Transoceanic
04:40PM 54.0323 -29.1511 267° West 449 517 40,000  Level FlightAware Transoceanic
04:41PM 54.0248 -29.3634 266° West 449 517 40,000  Level FlightAware Transoceanic
04:42PM 54.0169 -29.5757 266° West 449 517 40,000  Level FlightAware Transoceanic
04:43PM 54.0086 -29.7879 266° West 449 517 40,000  Level FlightAware Transoceanic
04:44PM 54.0005 -29.9887 266° West  Level FlightAware Approximate
04:45PM 53.9919 -30.1895 266° West  Level FlightAware Approximate
04:46PM 53.9896 -30.1778 264° West  Level FlightAware Approximate
04:47PM 53.9776 -30.3780 264° West  Level FlightAware Approximate
04:48PM 53.9653 -30.5781 264° West  Level FlightAware Approximate
04:49PM 53.9526 -30.7780 264° West  Level FlightAware Approximate
04:50PM 53.9396 -30.9779 264° West  Level FlightAware Approximate
04:50PM 54.0000 -30.0000 265° West 425 489 40,000  Level ETMS Enhanced Traffic Management System
04:51PM 53.9263 -31.1776 264° West  Level FlightAware Approximate
04:52PM 53.9127 -31.3771 263° West  Level FlightAware Approximate
04:53PM 53.8987 -31.5766 263° West  Level FlightAware Approximate
04:54PM 53.8843 -31.7759 263° West  Level FlightAware Approximate
04:55PM 53.8697 -31.9750 263° West  Level FlightAware Approximate
04:56PM 53.8703 -31.9951 263° West 425 489 40,000  Level FlightAware Transoceanic
04:57PM 53.8555 -32.1940 263° West 425 489 40,000  Level FlightAware Transoceanic
04:58PM 53.8404 -32.3926 263° West 425 489 40,000  Level FlightAware Transoceanic
04:59PM 53.8249 -32.5911 262° West 425 489 40,000  Level FlightAware Transoceanic
05:00PM 53.8091 -32.7895 262° West 425 489 40,000  Level FlightAware Transoceanic
05:01PM 53.7930 -32.9877 262° West 425 489 40,000  Level FlightAware Transoceanic
05:02PM 53.7766 -33.1857 262° West 425 489 40,000  Level FlightAware Transoceanic
05:03PM 53.7599 -33.3837 262° West 425 489 40,000  Level FlightAware Transoceanic
05:04PM 53.7428 -33.5814 262° West 425 489 40,000  Level FlightAware Transoceanic
05:05PM 53.7254 -33.7790 261° West 425 489 40,000  Level FlightAware Transoceanic
05:06PM 53.7077 -33.9764 261° West 425 489 40,000  Level FlightAware Transoceanic
05:07PM 53.6896 -34.1736 261° West 425 489 40,000  Level FlightAware Transoceanic
05:08PM 53.6712 -34.3707 261° West 425 489 40,000  Level FlightAware Transoceanic
05:09PM 53.6525 -34.5676 261° West 425 489 40,000  Level FlightAware Transoceanic
05:10PM 53.6335 -34.7644 261° West 425 489 40,000  Level FlightAware Transoceanic
05:11PM 53.6142 -34.9609 260° West 425 489 40,000  Level FlightAware Transoceanic
05:12PM 53.5945 -35.1573 260° West 425 489 40,000  Level FlightAware Transoceanic
05:13PM 53.5745 -35.3535 260° West 425 489 40,000  Level FlightAware Transoceanic
05:14PM 53.5542 -35.5495 260° West 425 489 40,000  Level FlightAware Transoceanic
05:15PM 53.5336 -35.7453 260° West 425 489 40,000  Level FlightAware Transoceanic
05:16PM 53.5126 -35.9409 260° West 425 489 40,000  Level FlightAware Transoceanic
05:17PM 53.4914 -36.1363 260° West 425 489 40,000  Level FlightAware Transoceanic
05:18PM 53.4698 -36.3315 259° West 425 489 40,000  Level FlightAware Transoceanic
05:19PM 53.4479 -36.5266 259° West 425 489 40,000  Level FlightAware Transoceanic
05:20PM 53.4257 -36.7214 259° West 425 489 40,000  Level FlightAware Transoceanic
05:21PM 53.4031 -36.9160 259° West 425 489 40,000  Level FlightAware Transoceanic
05:22PM 53.3803 -37.1104 259° West 425 489 40,000  Level FlightAware Transoceanic
05:23PM 53.3571 -37.3046 259° West 425 489 40,000  Level FlightAware Transoceanic
05:24PM 53.3336 -37.4986 258° West 425 489 40,000  Level FlightAware Transoceanic
05:25PM 53.3098 -37.6924 258° West 425 489 40,000  Level FlightAware Transoceanic
05:26PM 53.2857 -37.8859 258° West 425 489 40,000  Level FlightAware Transoceanic
05:27PM 53.2613 -38.0793 258° West 425 489 40,000  Level FlightAware Transoceanic
05:28PM 53.2366 -38.2724 258° West 425 489 40,000  Level FlightAware Transoceanic
05:29PM 53.2115 -38.4652 258° West 425 489 40,000  Level FlightAware Transoceanic
05:30PM 53.1862 -38.6579 258° West 425 489 40,000  Level FlightAware Transoceanic
05:31PM 53.1605 -38.8503 257° West 425 489 40,000  Level FlightAware Transoceanic
05:32PM 53.1345 -39.0425 257° West 425 489 40,000  Level FlightAware Transoceanic
05:33PM 53.1082 -39.2345 257° West 425 489 40,000  Level FlightAware Transoceanic
05:34PM 53.0816 -39.4262 257° West 425 489 40,000  Level FlightAware Transoceanic
05:35PM 53.0547 -39.6177 257° West 425 489 40,000  Level FlightAware Transoceanic
05:36PM 53.0275 -39.8090 257° West 425 489 40,000  Level FlightAware Transoceanic
05:37PM 53.0000 -40.0003 257° West  Level FlightAware Approximate
05:38PM 53.0000 -40.0005 265° West  Level FlightAware Approximate
05:39PM 52.9888 -40.1962 265° West  Level FlightAware Approximate
05:40PM 52.9773 -40.3918 265° West  Level FlightAware Approximate
05:40PM 53.0000 -40.0000 265° West 418 481 40,000  Level ETMS Enhanced Traffic Management System
05:41PM 52.9655 -40.5873 264° West  Level FlightAware Approximate
05:42PM 52.9534 -40.7827 264° West  Level FlightAware Approximate
05:43PM 52.9410 -40.9780 264° West  Level FlightAware Approximate
05:44PM 52.9282 -41.1732 264° West  Level FlightAware Approximate
05:45PM 52.9151 -41.3682 264° West  Level FlightAware Approximate
05:46PM 52.9036 -41.5360 263° West 418 481 40,000  Level FlightAware Transoceanic
05:47PM 52.8901 -41.7275 263° West 418 481 40,000  Level FlightAware Transoceanic
05:48PM 52.8764 -41.9189 263° West 418 481 40,000  Level FlightAware Transoceanic
05:49PM 52.8623 -42.1101 263° West 418 481 40,000  Level FlightAware Transoceanic
05:50PM 52.8480 -42.3013 263° West 418 481 40,000  Level FlightAware Transoceanic
05:51PM 52.8333 -42.4922 263° West 418 481 40,000  Level FlightAware Transoceanic
05:52PM 52.8183 -42.6831 263° West 418 481 40,000  Level FlightAware Transoceanic
05:53PM 52.8031 -42.8739 262° West 418 481 40,000  Level FlightAware Transoceanic
05:54PM 52.7875 -43.0645 262° West 418 481 40,000  Level FlightAware Transoceanic
05:55PM 52.7716 -43.2549 262° West 418 481 40,000  Level FlightAware Transoceanic
05:56PM 52.7554 -43.4453 262° West 418 481 40,000  Level FlightAware Transoceanic
05:57PM 52.7389 -43.6354 262° West 418 481 40,000  Level FlightAware Transoceanic
05:58PM 52.7221 -43.8255 262° West 418 481 40,000  Level FlightAware Transoceanic
05:59PM 52.7049 -44.0154 261° West 418 481 40,000  Level FlightAware Transoceanic
06:00PM 52.6875 -44.2051 261° West 418 481 40,000  Level FlightAware Transoceanic
06:01PM 52.6698 -44.3947 261° West 418 481 40,000  Level FlightAware Transoceanic
06:02PM 52.6518 -44.5841 261° West 418 481 40,000  Level FlightAware Transoceanic
06:03PM 52.6335 -44.7734 261° West 418 481 40,000  Level FlightAware Transoceanic
06:04PM 52.6149 -44.9625 261° West 418 481 40,000  Level FlightAware Transoceanic
06:05PM 52.5959 -45.1515 261° West 418 481 40,000  Level FlightAware Transoceanic
06:06PM 52.5767 -45.3402 260° West 418 481 40,000  Level FlightAware Transoceanic
06:07PM 52.5572 -45.5289 260° West 418 481 40,000  Level FlightAware Transoceanic
06:08PM 52.5374 -45.7173 260° West 418 481 40,000  Level FlightAware Transoceanic
06:09PM 52.5173 -45.9056 260° West 418 481 40,000  Level FlightAware Transoceanic
06:10PM 52.4968 -46.0937 260° West 418 481 40,000  Level FlightAware Transoceanic
06:11PM 52.4761 -46.2817 260° West 418 481 40,000  Level FlightAware Transoceanic
06:12PM 52.4551 -46.4694 260° West 418 481 40,000  Level FlightAware Transoceanic
06:13PM 52.4338 -46.6570 259° West 418 481 40,000  Level FlightAware Transoceanic
06:14PM 52.4122 -46.8444 259° West 418 481 40,000  Level FlightAware Transoceanic
06:15PM 52.3903 -47.0316 259° West 418 481 40,000  Level FlightAware Transoceanic
06:16PM 52.3681 -47.2186 259° West 418 481 40,000  Level FlightAware Transoceanic
06:17PM 52.3456 -47.4054 259° West 418 481 40,000  Level FlightAware Transoceanic
06:18PM 52.3228 -47.5920 259° West 418 481 40,000  Level FlightAware Transoceanic
06:19PM 52.2997 -47.7785 258° West 418 481 40,000  Level FlightAware Transoceanic
06:20PM 52.2763 -47.9647 258° West 418 481 40,000  Level FlightAware Transoceanic
06:21PM 52.2527 -48.1508 258° West 418 481 40,000  Level FlightAware Transoceanic
06:22PM 52.2287 -48.3367 258° West 418 481 40,000  Level FlightAware Transoceanic
06:23PM 52.2044 -48.5223 258° West 418 481 40,000  Level FlightAware Transoceanic
06:24PM 52.1799 -48.7077 258° West 418 481 40,000  Level FlightAware Transoceanic
06:25PM 52.1551 -48.8930 258° West 418 481 40,000  Level FlightAware Transoceanic
06:26PM 52.1300 -49.0780 257° West 418 481 40,000  Level FlightAware Transoceanic
06:27PM 52.1045 -49.2628 257° West 418 481 40,000  Level FlightAware Transoceanic
06:28PM 52.0788 -49.4475 257° West 418 481 40,000  Level FlightAware Transoceanic
06:29PM 52.0528 -49.6319 257° West 418 481 40,000  Level FlightAware Transoceanic
06:30PM 52.0266 -49.8160 257° West 418 481 40,000 720 Level FlightAware Transoceanic
06:30PM 52.0000 -50.0000 250° West 403 464 41,000 840 Climbing ETMS Enhanced Traffic Management System
06:31PM 51.9995 -50.0032 257° West  Level FlightAware Approximate
06:31PM 51.9333 -50.1667 249° West 460 529 41,100  Level Gander Center
06:32PM 51.9986 -50.0062 251° West  Level FlightAware Approximate
06:32PM 51.9000 -50.3333 252° West 450 518 41,100  Level Gander Center
06:33PM 51.9590 -50.1872 251° West  Level FlightAware Approximate
06:33PM 51.8500 -50.5333 248° West 450 518 41,400  Level Gander Center
06:34PM 51.9191 -50.3679 250° West  Level FlightAware Approximate
06:34PM 51.8000 -50.7333 248° West 460 529 42,200  Level Gander Center
06:35PM 51.8789 -50.5482 250° West  Level FlightAware Approximate
06:35PM 51.7667 -50.9167 254° West 450 518 42,700  Level Gander Center
06:36PM 51.6911 -51.3594 249° West 403 464 41,000 300 Descending FlightAware Transoceanic
06:36PM 51.7167 -51.0833 244° Southwest 450 518 43,000 1,680 Climbing Gander Center
06:37PM 51.6667 -51.2833 248° West 450 518 43,100  Climbing Gander Center
06:38PM 51.6167 -51.4667 246° West 460 529 43,100  Level Gander Center
06:39PM 51.5667 -51.6667 248° West 470 541 43,100  Level Gander Center
06:40PM 51.5167 -51.8333 244° Southwest 470 541 43,100  Level Gander Center
06:41PM 51.4667 -52.0333 248° West 470 541 43,100  Level Gander Center
06:42PM 51.4167 -52.2333 248° West 470 541 43,100  Level Gander Center
06:42PM 51.3667 -52.3833 242° Southwest 470 541 43,100  Level Moncton Center
06:43PM 51.3000 -52.5667 240° Southwest 460 529 43,100  Level Moncton Center
06:44PM 51.2500 -52.7667 248° West 480 552 43,100  Level Moncton Center
06:46PM 51.2000 -52.9333 244° Southwest 470 541 43,100  Level Moncton Center
06:47PM 51.1333 -53.1667 246° West 470 541 43,100  Level Gander Center
06:48PM 51.0667 -53.3667 242° Southwest 470 541 43,100  Level Gander Center
06:49PM 51.0167 -53.5333 245° Southwest 470 541 43,100  Level Gander Center
06:50PM 50.9667 -53.6833 242° Southwest 470 541 43,100  Level Moncton Center
06:51PM 50.9000 -53.9333 247° West 470 541 43,100  Level Gander Center
06:52PM 50.8500 -54.1167 247° West 470 541 43,100  Level Gander Center
06:53PM 50.8167 -54.2500 248° West 470 541 43,100  Level Moncton Center
06:54PM 50.7500 -54.4333 240° Southwest 470 541 43,100  Level Moncton Center
06:55PM 50.7000 -54.6333 249° West 470 541 43,100  Level Moncton Center
06:56PM 50.6333 -54.8333 242° Southwest 470 541 43,100  Level Moncton Center
06:57PM 50.5667 -55.0333 242° Southwest 470 541 43,100  Level Gander Center
06:58PM 50.5167 -55.2333 249° West 470 541 43,100  Level Gander Center
06:59PM 50.4333 -55.4167 235° Southwest 470 541 43,100  Level Gander Center
07:00PM 50.3833 -55.5833 245° Southwest 470 541 43,100  Level Gander Center
07:01PM 50.3167 -55.7833 242° Southwest 470 541 43,100  Level Gander Center
07:02PM 50.2667 -55.9667 247° West 470 541 43,100  Level Gander Center
07:03PM 50.2000 -56.1667 243° Southwest 470 541 43,100  Level Gander Center
07:04PM 50.1500 -56.3167 243° Southwest 470 541 43,100  Level Gander Center
07:05PM 50.1167 -56.4500 249° West 470 541 43,100  Level Moncton Center
07:06PM 50.0333 -56.7000 243° Southwest 470 541 43,100  Level Gander Center
07:07PM 49.9500 -56.8833 235° Southwest 480 552 43,100  Level Gander Center
07:08PM 49.9000 -57.0500 245° Southwest 470 541 43,100  Level Gander Center
07:09PM 49.8500 -57.2333 247° West 470 541 43,100  Level Gander Center
07:10PM 49.7667 -57.4167 235° Southwest 470 541 43,100  Level Gander Center
07:11PM 49.7167 -57.5833 245° Southwest 470 541 43,100  Level Gander Center
07:12PM 49.6500 -57.7667 241° Southwest 470 541 43,100  Level Gander Center
07:13PM 49.5833 -57.9500 241° Southwest 470 541 43,100  Level Gander Center
07:14PM 49.5167 -58.1333 241° Southwest 470 541 43,100  Level Gander Center
07:15PM 49.4833 -58.2667 249° West 470 541 43,100  Level Moncton Center
07:16PM 49.4167 -58.4167 236° Southwest 470 541 43,100  Level Moncton Center
07:17PM 49.3333 -58.6667 243° Southwest 470 541 43,100  Level Gander Center
07:18PM 49.2833 -58.7667 233° Southwest 470 541 43,100  Level Moncton Center
07:19PM 49.2167 -58.9667 243° Southwest 470 541 43,100  Level Moncton Center
07:20PM 49.1500 -59.1833 245° Southwest 480 552 43,100  Level Gander Center
07:21PM 49.1000 -59.3333 243° Southwest 480 552 43,100  Level Moncton Center
07:22PM 49.0167 -59.5000 233° Southwest 480 552 43,100  Level Moncton Center
07:23PM 48.9667 -59.6833 247° West 480 552 43,100  Level Moncton Center
07:24PM 48.9000 -59.8333 236° Southwest 480 552 43,100  Level Moncton Center
07:25PM 48.8167 -60.0667 242° Southwest 480 552 43,100  Level Gander Center
07:26PM 48.7667 -60.2000 240° Southwest 480 552 43,100  Level Moncton Center
07:27PM 48.6833 -60.3667 233° Southwest 480 552 43,100  Level Moncton Center
07:28PM 48.6167 -60.5500 241° Southwest 480 552 43,100  Level Moncton Center
07:29PM 48.5667 -60.7333 248° West 480 552 43,100  Level Moncton Center
07:30PM 48.4833 -60.8833 230° Southwest 490 564 43,100  Level Moncton Center
07:31PM 48.4167 -61.0667 241° Southwest 480 552 43,100  Level Moncton Center
07:32PM 48.3500 -61.2500 241° Southwest 480 552 43,100  Level Moncton Center
07:33PM 48.2833 -61.4333 241° Southwest 480 552 43,100  Level Moncton Center
07:34PM 48.2167 -61.5833 236° Southwest 480 552 43,100  Level Moncton Center
07:35PM 48.1333 -61.7667 236° Southwest 480 552 43,100  Level Moncton Center
07:36PM 48.0500 -61.9833 240° Southwest 480 552 43,100  Level Gander Center
07:37PM 47.9833 -62.1500 239° Southwest 490 564 43,100  Level Gander Center
07:38PM 47.9167 -62.3333 242° Southwest 480 552 43,100  Level Gander Center
07:39PM 47.8333 -62.4833 230° Southwest 480 552 43,100  Level Gander Center
07:40PM 47.7667 -62.6667 242° Southwest 480 552 43,100  Level Gander Center
07:41PM 47.7167 -62.7833 238° Southwest 480 552 43,100  Level Moncton Center
07:42PM 47.6500 -62.9500 239° Southwest 480 552 43,100  Level Moncton Center
07:43PM 47.5833 -63.1000 237° Southwest 470 541 43,100  Level Moncton Center
07:44PM 47.5167 -63.2833 242° Southwest 470 541 43,100  Level Moncton Center
07:45PM 47.4333 -63.4500 234° Southwest 470 541 43,100  Level Moncton Center
07:46PM 47.3667 -63.6000 237° Southwest 470 541 43,100  Level Moncton Center
07:47PM 47.3000 -63.7500 237° Southwest 470 541 43,100  Level Moncton Center
07:48PM 47.2167 -63.9333 236° Southwest 480 552 43,100  Level Moncton Center
07:49PM 47.1500 -64.1000 240° Southwest 470 541 43,100  Level Moncton Center
07:50PM 47.0833 -64.2667 240° Southwest 480 552 43,100  Level Moncton Center
07:51PM 47.0000 -64.4167 231° Southwest 480 552 43,100  Level Moncton Center
07:52PM 46.9333 -64.6000 242° Southwest 470 541 43,100  Level Moncton Center
07:53PM 46.8667 -64.7333 234° Southwest 480 552 43,100  Level Moncton Center
07:53PM 46.7833 -64.9167 236° Southwest 470 541 43,100  Level Moncton Center
07:54PM 46.7167 -65.0500 234° Southwest 470 541 43,100  Level Moncton Center
07:56PM 46.6500 -65.2333 242° Southwest 470 541 43,100  Level Moncton Center
07:57PM 46.5500 -65.4000 229° Southwest 470 541 43,100  Level Moncton Center
07:58PM 46.4833 -65.5333 234° Southwest 480 552 43,100  Level Moncton Center
07:59PM 46.4000 -65.7000 234° Southwest 480 552 43,100  Level Moncton Center
08:00PM 46.3333 -65.8500 237° Southwest 480 552 43,100  Level Moncton Center
08:01PM 46.2667 -66.0167 240° Southwest 470 541 43,100  Level Moncton Center
08:02PM 46.2000 -66.1833 240° Southwest 470 541 43,100  Level Moncton Center
08:03PM 46.1167 -66.3333 231° Southwest 470 541 43,100  Level Moncton Center
08:04PM 46.0333 -66.5000 234° Southwest 470 541 43,100  Level Moncton Center
08:05PM 45.9500 -66.6667 234° Southwest 470 541 43,100  Level Moncton Center
08:06PM 45.8833 -66.8000 234° Southwest 470 541 43,100  Level Moncton Center
08:07PM 45.8167 -66.9667 240° Southwest 470 541 43,100  Level Moncton Center
08:08PM 45.7500 -67.1000 234° Southwest 470 541 43,100  Level Moncton Center
08:09PM 45.6667 -67.2500 232° Southwest 470 541 43,100  Level Moncton Center
08:10PM 45.5833 -67.4167 234° Southwest 470 541 43,100  Level Moncton Center
08:11PM 45.5167 -67.5500 235° Southwest 470 541 43,100  Level Moncton Center
08:12PM 45.4333 -67.7167 235° Southwest 480 552 43,100  Level Moncton Center
08:13PM 45.3500 -67.8667 232° Southwest 470 541 43,100  Level Moncton Center
08:14PM 45.2833 -68.0167 238° Southwest 470 541 43,100  Level Moncton Center
08:15PM 45.2000 -68.1667 232° Southwest 470 541 43,100  Level Moncton Center
08:16PM 45.1167 -68.3167 232° Southwest 470 541 43,100  Level Moncton Center
08:17PM 45.0500 -68.4850 241° Southwest 477 549 43,100  Level Boston Center
08:18PM 44.9717 -68.6342 233° Southwest 477 549 43,100  Level Boston Center
08:19PM 44.8950 -68.7800 233° Southwest 477 549 43,100  Level Boston Center
08:20PM 44.8228 -68.9339 237° Southwest 477 549 43,100  Level Boston Center
08:21PM 44.7586 -69.0897 240° Southwest 472 543 43,100  Level Boston Center
08:22PM 44.6942 -69.2453 240° Southwest 472 543 43,100  Level Boston Center
08:23PM 44.6258 -69.4181 241° Southwest 467 537 43,100  Level Boston Center
08:24PM 44.5633 -69.5758 241° Southwest 467 537 43,100  Level Boston Center
08:25PM 44.5025 -69.7303 241° Southwest 467 537 43,100  Level Boston Center
08:26PM 44.4414 -69.8842 241° Southwest 467 537 43,100  Level Boston Center
08:27PM 44.3781 -70.0408 241° Southwest 467 537 43,100  Level Boston Center
08:28PM 44.3164 -70.1914 240° Southwest 462 532 43,100  Level Boston Center
08:29PM 44.2506 -70.3475 240° Southwest 462 532 43,100  Level Boston Center
08:30PM 44.1967 -70.4825 241° Southwest 462 532 43,100  Level Boston Center
08:31PM 44.1306 -70.6381 239° Southwest 462 532 43,100  Level Boston Center
08:32PM 44.0683 -70.7903 240° Southwest 468 539 43,100  Level Boston Center
08:33PM 44.0056 -70.9419 240° Southwest 461 531 43,100  Level Boston Center
08:34PM 43.9408 -71.0908 239° Southwest 461 531 43,100 -360 Level Boston Center
08:35PM 43.8781 -71.2419 240° Southwest 461 531 42,500 -1,140 Descending Boston Center
08:36PM 43.8128 -71.3986 240° Southwest 461 531 40,900 -1,500 Descending Boston Center
08:37PM 43.7494 -71.5492 240° Southwest 461 531 39,500 -1,440 Descending Boston Center
08:38PM 43.6839 -71.7022 239° Southwest 461 531 38,000 -1,560 Descending Boston Center
08:39PM 43.6181 -71.8522 239° Southwest 466 536 36,500 -1,560 Descending Boston Center
08:40PM 43.5500 -72.0075 239° Southwest 466 536 35,000 -1,500 Descending Boston Center
08:41PM 43.4839 -72.1597 239° Southwest 466 536 33,500 -1,560 Descending Boston Center
08:42PM 43.4172 -72.3172 240° Southwest 466 536 32,000 -1,500 Descending Boston Center
08:43PM 43.3486 -72.4744 239° Southwest 472 543 30,600 -1,440 Descending Boston Center
08:44PM 43.2775 -72.6311 238° Southwest 477 549 29,200 -1,380 Descending Boston Center
08:45PM 43.2086 -72.7875 239° Southwest 477 549 27,900 -1,380 Descending Boston Center
08:46PM 43.1328 -72.9550 238° Southwest 477 549 26,400 -1,440 Descending Boston Center
08:47PM 43.0758 -73.0881 240° Southwest 472 543 25,000 -2,160 Descending Boston Center
08:48PM 43.0019 -73.2464 237° Southwest 472 543 22,200 -2,160 Descending Boston Center
08:49PM 42.9425 -73.3703 237° Southwest 460 529 20,800 -1,440 Descending Boston Center
08:50PM 42.8789 -73.5111 238° Southwest 447 514 19,300 -1,620 Descending Boston Center
08:51PM 42.8150 -73.6542 239° Southwest 423 487 17,700 -1,620 Descending Boston Center
08:52PM 42.7489 -73.7803 235° Southwest 416 479 16,200 -1,500 Descending Boston Center
08:53PM 42.6561 -73.8742 217° Southwest 407 468 14,700 -1,080 Descending Boston Center
08:54PM 42.5678 -73.9342 207° Southwest 401 461 14,100 -300 Descending Boston Center
08:55PM 42.4603 -74.0161 209° Southwest 401 461 14,100 -300 Level Boston Center
08:56PM 42.3678 -74.0783 206° Southwest 407 468 13,600 -720 Descending Boston Center
08:57PM 42.2542 -74.1400 202° Southwest 407 468 12,700 -840 Descending Boston Center
08:58PM 42.1639 -74.1906 203° Southwest 397 457 12,000 -840 Descending Boston Center
08:59PM 42.0525 -74.2492 201° Southwest 392 451 11,100 -720 Descending Boston Center
09:00PM 41.9767 -74.2917 203° Southwest 359 413 10,600 -660 Descending Boston Center
09:01PM 41.8906 -74.3364 201° Southwest 316 364 9,900 -600 Descending Boston Center
09:02PM 41.8211 -74.3761 203° Southwest 309 356 9,400 -600 Descending Boston Center
09:03PM 41.7369 -74.4181 200° South 309 356 8,700 -600 Descending Boston Center
09:04PM 41.6675 -74.4578 203° Southwest 304 350 8,200 -600 Descending Boston Center
09:05PM 41.5833 -74.5022 202° Southwest 298 343 7,600 -600 Descending Boston Center
09:06PM 41.5161 -74.5361 201° Southwest 298 343 7,100 -420 Descending Boston Center
09:08PM 41.3667 -74.6000 198° South 292 336 6,600 -420 Descending New York TRACON
09:09PM 41.3000 -74.6333 201° Southwest 290 334 6,100 -600 Descending New York TRACON
09:10PM 41.2167 -74.6500 189° South 284 327 5,400 -780 Descending New York TRACON
09:11PM 41.1500 -74.6000 151° Southeast 282 325 4,500 -660 Descending New York TRACON
09:12PM 41.1000 -74.5167 129° Southeast 280 322 4,100 -540 Descending New York TRACON
09:13PM 41.0500 -74.4500 135° Southeast 269 310 3,500 -540 Descending New York TRACON
09:14PM 41.0000 -74.3833 135° Southeast 260 299 3,100 -480 Descending New York TRACON
09:15PM 40.9500 -74.3167 135° Southeast 247 284 2,500 -480 Descending New York TRACON
09:16PM 40.9000 -74.2500 135° Southeast 221 254 2,100 -300 Descending New York TRACON
09:17PM 40.8500 -74.2000 143° Southeast 205 236 2,000 -180 Descending New York TRACON
09:18PM 40.8333 -74.1500 114° Southeast 166 191 1,800 -480 Descending New York TRACON
09:19PM 40.8167 -74.1000 114° Southeast 164 189 1,100 -780 Descending New York TRACON
09:21PM 40.8500 -74.0500 114° Southeast  Level FlightAware Approximate
09:28PM 40.8501 -74.0608 114° Southeast  Level Estimated
09:29PM 40.8501 -74.0608 114° Southeast  Level Estimated